sensor_id;sensor_type;location;lat;lon;timestamp;P1;durP1;ratioP1;P2;durP2;ratioP2
12784;SDS011;6456;42.680;23.260;2023-08-20T00:01:26;7.47;;;5.60;;
12784;SDS011;6456;42.680;23.260;2023-08-20T00:03:54;6.30;;;5.53;;
12784;SDS011;6456;42.680;23.260;2023-08-20T00:06:22;5.97;;;5.00;;
12784;SDS011;6456;42.680;23.260;2023-08-20T00:08:50;6.97;;;5.60;;
12784;SDS011;6456;42.680;23.260;2023-08-20T00:11:18;6.05;;;5.45;;
12784;SDS011;6456;42.680;23.260;2023-08-20T00:13:46;6.45;;;5.50;;
12784;SDS011;6456;42.680;23.260;2023-08-20T00:16:16;5.97;;;5.47;;
12784;SDS011;6456;42.680;23.260;2023-08-20T00:18:43;6.03;;;5.45;;
12784;SDS011;6456;42.680;23.260;2023-08-20T00:21:11;6.22;;;5.63;;
12784;SDS011;6456;42.680;23.260;2023-08-20T00:23:38;6.68;;;6.00;;
12784;SDS011;6456;42.680;23.260;2023-08-20T00:26:05;6.18;;;5.25;;
12784;SDS011;6456;42.680;23.260;2023-08-20T00:28:32;8.43;;;5.28;;
12784;SDS011;6456;42.680;23.260;2023-08-20T00:31:03;6.80;;;5.47;;
12784;SDS011;6456;42.680;23.260;2023-08-20T00:33:30;8.18;;;5.50;;
12784;SDS011;6456;42.680;23.260;2023-08-20T00:35:57;7.43;;;5.40;;
12784;SDS011;6456;42.680;23.260;2023-08-20T00:38:24;5.95;;;5.43;;
12784;SDS011;6456;42.680;23.260;2023-08-20T00:40:51;6.85;;;5.65;;
12784;SDS011;6456;42.680;23.260;2023-08-20T00:43:21;6.13;;;5.40;;
12784;SDS011;6456;42.680;23.260;2023-08-20T00:45:48;6.80;;;5.78;;
12784;SDS011;6456;42.680;23.260;2023-08-20T00:48:17;6.22;;;5.72;;
12784;SDS011;6456;42.680;23.260;2023-08-20T00:50:44;6.18;;;5.57;;
12784;SDS011;6456;42.680;23.260;2023-08-20T00:53:12;7.22;;;5.55;;
12784;SDS011;6456;42.680;23.260;2023-08-20T00:55:43;7.63;;;5.82;;
12784;SDS011;6456;42.680;23.260;2023-08-20T00:58:11;5.97;;;5.47;;
12784;SDS011;6456;42.680;23.260;2023-08-20T01:00:40;6.40;;;5.80;;
12784;SDS011;6456;42.680;23.260;2023-08-20T01:03:07;7.10;;;6.05;;
12784;SDS011;6456;42.680;23.260;2023-08-20T01:05:38;8.45;;;5.88;;
12784;SDS011;6456;42.680;23.260;2023-08-20T01:08:19;6.15;;;5.47;;
12784;SDS011;6456;42.680;23.260;2023-08-20T01:10:56;6.55;;;5.95;;
12784;SDS011;6456;42.680;23.260;2023-08-20T01:13:25;5.82;;;5.32;;
12784;SDS011;6456;42.680;23.260;2023-08-20T01:15:52;6.95;;;6.35;;
12784;SDS011;6456;42.680;23.260;2023-08-20T01:18:19;6.68;;;5.97;;
12784;SDS011;6456;42.680;23.260;2023-08-20T01:20:51;8.73;;;5.93;;
12784;SDS011;6456;42.680;23.260;2023-08-20T01:26:36;6.40;;;5.72;;
12784;SDS011;6456;42.680;23.260;2023-08-20T01:29:17;6.03;;;5.53;;
12784;SDS011;6456;42.680;23.260;2023-08-20T01:31:44;6.22;;;5.55;;
12784;SDS011;6456;42.680;23.260;2023-08-20T01:34:15;6.00;;;5.50;;
12784;SDS011;6456;42.680;23.260;2023-08-20T01:36:42;6.63;;;5.28;;
12784;SDS011;6456;42.680;23.260;2023-08-20T01:39:09;7.38;;;6.53;;
12784;SDS011;6456;42.680;23.260;2023-08-20T01:41:38;7.38;;;6.57;;
12784;SDS011;6456;42.680;23.260;2023-08-20T01:44:05;8.48;;;6.45;;
12784;SDS011;6456;42.680;23.260;2023-08-20T01:46:34;10.65;;;6.97;;
12784;SDS011;6456;42.680;23.260;2023-08-20T01:49:01;8.35;;;7.20;;
12784;SDS011;6456;42.680;23.260;2023-08-20T01:51:28;9.45;;;7.63;;
12784;SDS011;6456;42.680;23.260;2023-08-20T01:53:55;9.15;;;7.18;;
12784;SDS011;6456;42.680;23.260;2023-08-20T01:56:22;7.97;;;6.63;;
12784;SDS011;6456;42.680;23.260;2023-08-20T01:58:49;8.07;;;6.60;;
12784;SDS011;6456;42.680;23.260;2023-08-20T02:01:16;7.13;;;6.03;;
12784;SDS011;6456;42.680;23.260;2023-08-20T02:03:45;7.85;;;6.20;;
12784;SDS011;6456;42.680;23.260;2023-08-20T02:06:12;8.77;;;6.68;;
12784;SDS011;6456;42.680;23.260;2023-08-20T02:08:39;6.95;;;6.25;;
12784;SDS011;6456;42.680;23.260;2023-08-20T02:11:06;8.45;;;6.65;;
12784;SDS011;6456;42.680;23.260;2023-08-20T02:13:33;6.95;;;6.28;;
12784;SDS011;6456;42.680;23.260;2023-08-20T02:16:00;7.10;;;6.18;;
12784;SDS011;6456;42.680;23.260;2023-08-20T02:18:28;6.82;;;6.13;;
12784;SDS011;6456;42.680;23.260;2023-08-20T02:20:57;9.15;;;6.07;;
12784;SDS011;6456;42.680;23.260;2023-08-20T02:23:24;8.05;;;6.22;;
12784;SDS011;6456;42.680;23.260;2023-08-20T02:25:51;6.93;;;6.28;;
12784;SDS011;6456;42.680;23.260;2023-08-20T02:28:20;7.00;;;6.32;;
12784;SDS011;6456;42.680;23.260;2023-08-20T02:30:47;7.40;;;6.05;;
12784;SDS011;6456;42.680;23.260;2023-08-20T02:33:13;7.10;;;6.32;;
12784;SDS011;6456;42.680;23.260;2023-08-20T02:35:41;7.13;;;6.43;;
12784;SDS011;6456;42.680;23.260;2023-08-20T02:38:09;6.70;;;6.10;;
12784;SDS011;6456;42.680;23.260;2023-08-20T02:40:39;6.57;;;5.93;;
12784;SDS011;6456;42.680;23.260;2023-08-20T02:43:07;7.53;;;6.75;;
12784;SDS011;6456;42.680;23.260;2023-08-20T02:45:39;6.65;;;6.00;;
12784;SDS011;6456;42.680;23.260;2023-08-20T02:48:07;9.63;;;6.90;;
12784;SDS011;6456;42.680;23.260;2023-08-20T02:50:34;8.00;;;7.00;;
12784;SDS011;6456;42.680;23.260;2023-08-20T02:53:01;9.57;;;6.85;;
12784;SDS011;6456;42.680;23.260;2023-08-20T02:55:29;7.47;;;6.78;;
12784;SDS011;6456;42.680;23.260;2023-08-20T02:57:57;7.70;;;6.93;;
12784;SDS011;6456;42.680;23.260;2023-08-20T03:00:24;8.00;;;7.20;;
12784;SDS011;6456;42.680;23.260;2023-08-20T03:02:51;7.13;;;6.43;;
12784;SDS011;6456;42.680;23.260;2023-08-20T03:05:18;8.48;;;7.05;;
12784;SDS011;6456;42.680;23.260;2023-08-20T03:07:45;8.55;;;7.40;;
12784;SDS011;6456;42.680;23.260;2023-08-20T03:10:15;9.75;;;6.93;;
12784;SDS011;6456;42.680;23.260;2023-08-20T03:12:43;7.77;;;7.07;;
12784;SDS011;6456;42.680;23.260;2023-08-20T03:15:10;8.60;;;7.70;;
12784;SDS011;6456;42.680;23.260;2023-08-20T03:17:37;7.83;;;7.07;;
12784;SDS011;6456;42.680;23.260;2023-08-20T03:20:05;7.90;;;7.10;;
12784;SDS011;6456;42.680;23.260;2023-08-20T03:22:32;7.53;;;6.83;;
12784;SDS011;6456;42.680;23.260;2023-08-20T03:24:59;7.57;;;6.83;;
12784;SDS011;6456;42.680;23.260;2023-08-20T03:27:26;7.87;;;7.10;;
12784;SDS011;6456;42.680;23.260;2023-08-20T03:29:55;12.70;;;8.03;;
12784;SDS011;6456;42.680;23.260;2023-08-20T03:32:22;8.53;;;7.63;;
12784;SDS011;6456;42.680;23.260;2023-08-20T03:34:49;9.95;;;8.07;;
12784;SDS011;6456;42.680;23.260;2023-08-20T03:37:18;9.93;;;7.40;;
12784;SDS011;6456;42.680;23.260;2023-08-20T03:39:45;8.23;;;7.53;;
12784;SDS011;6456;42.680;23.260;2023-08-20T03:42:12;8.50;;;7.60;;
12784;SDS011;6456;42.680;23.260;2023-08-20T03:44:39;9.23;;;7.87;;
12784;SDS011;6456;42.680;23.260;2023-08-20T03:47:07;8.43;;;7.60;;
12784;SDS011;6456;42.680;23.260;2023-08-20T03:49:34;9.32;;;8.40;;
12784;SDS011;6456;42.680;23.260;2023-08-20T03:52:01;8.70;;;7.07;;
12784;SDS011;6456;42.680;23.260;2023-08-20T03:54:28;8.80;;;7.60;;
12784;SDS011;6456;42.680;23.260;2023-08-20T03:56:56;11.43;;;7.57;;
12784;SDS011;6456;42.680;23.260;2023-08-20T03:59:23;10.23;;;7.30;;
12784;SDS011;6456;42.680;23.260;2023-08-20T04:01:50;10.20;;;7.30;;
12784;SDS011;6456;42.680;23.260;2023-08-20T04:04:18;8.27;;;7.47;;
12784;SDS011;6456;42.680;23.260;2023-08-20T04:06:46;11.60;;;7.97;;
12784;SDS011;6456;42.680;23.260;2023-08-20T04:09:13;9.33;;;7.70;;
12784;SDS011;6456;42.680;23.260;2023-08-20T04:11:40;9.85;;;7.40;;
12784;SDS011;6456;42.680;23.260;2023-08-20T04:14:07;11.63;;;7.53;;
12784;SDS011;6456;42.680;23.260;2023-08-20T04:16:34;9.57;;;7.57;;
12784;SDS011;6456;42.680;23.260;2023-08-20T04:19:01;16.08;;;7.70;;
12784;SDS011;6456;42.680;23.260;2023-08-20T04:21:29;10.13;;;7.50;;
12784;SDS011;6456;42.680;23.260;2023-08-20T04:23:56;9.15;;;7.75;;
12784;SDS011;6456;42.680;23.260;2023-08-20T04:26:23;14.85;;;8.50;;
12784;SDS011;6456;42.680;23.260;2023-08-20T04:28:50;10.52;;;7.90;;
12784;SDS011;6456;42.680;23.260;2023-08-20T04:31:17;9.98;;;8.20;;
12784;SDS011;6456;42.680;23.260;2023-08-20T04:33:45;9.55;;;7.93;;
12784;SDS011;6456;42.680;23.260;2023-08-20T04:36:12;8.52;;;7.63;;
12784;SDS011;6456;42.680;23.260;2023-08-20T04:38:40;8.35;;;7.50;;
12784;SDS011;6456;42.680;23.260;2023-08-20T04:41:07;11.23;;;7.45;;
12784;SDS011;6456;42.680;23.260;2023-08-20T04:43:34;8.80;;;7.28;;
12784;SDS011;6456;42.680;23.260;2023-08-20T04:46:01;10.18;;;7.78;;
12784;SDS011;6456;42.680;23.260;2023-08-20T04:48:28;8.60;;;7.70;;
12784;SDS011;6456;42.680;23.260;2023-08-20T04:50:55;8.55;;;7.57;;
12784;SDS011;6456;42.680;23.260;2023-08-20T04:53:22;8.00;;;7.07;;
12784;SDS011;6456;42.680;23.260;2023-08-20T04:55:50;10.02;;;7.78;;
12784;SDS011;6456;42.680;23.260;2023-08-20T04:58:17;9.02;;;7.63;;
12784;SDS011;6456;42.680;23.260;2023-08-20T05:00:44;9.85;;;8.07;;
12784;SDS011;6456;42.680;23.260;2023-08-20T05:03:11;8.68;;;7.70;;
12784;SDS011;6456;42.680;23.260;2023-08-20T05:05:38;8.50;;;7.57;;
12784;SDS011;6456;42.680;23.260;2023-08-20T05:08:05;8.75;;;7.93;;
12784;SDS011;6456;42.680;23.260;2023-08-20T05:10:35;8.43;;;7.60;;
12784;SDS011;6456;42.680;23.260;2023-08-20T05:13:03;8.27;;;7.28;;
12784;SDS011;6456;42.680;23.260;2023-08-20T05:15:31;8.73;;;7.57;;
12784;SDS011;6456;42.680;23.260;2023-08-20T05:17:57;9.10;;;7.78;;
12784;SDS011;6456;42.680;23.260;2023-08-20T05:20:24;8.25;;;7.50;;
12784;SDS011;6456;42.680;23.260;2023-08-20T05:22:51;7.88;;;7.18;;
12784;SDS011;6456;42.680;23.260;2023-08-20T05:25:18;8.27;;;7.47;;
12784;SDS011;6456;42.680;23.260;2023-08-20T05:27:45;7.90;;;7.10;;
12784;SDS011;6456;42.680;23.260;2023-08-20T05:30:13;7.95;;;7.18;;
12784;SDS011;6456;42.680;23.260;2023-08-20T05:32:40;7.85;;;7.13;;
12784;SDS011;6456;42.680;23.260;2023-08-20T05:35:07;8.98;;;6.82;;
12784;SDS011;6456;42.680;23.260;2023-08-20T05:37:34;9.63;;;7.18;;
12784;SDS011;6456;42.680;23.260;2023-08-20T05:40:01;8.18;;;7.30;;
12784;SDS011;6456;42.680;23.260;2023-08-20T05:42:28;7.72;;;7.00;;
12784;SDS011;6456;42.680;23.260;2023-08-20T05:44:55;7.53;;;6.82;;
12784;SDS011;6456;42.680;23.260;2023-08-20T05:47:23;8.45;;;7.65;;
12784;SDS011;6456;42.680;23.260;2023-08-20T05:49:50;10.68;;;8.73;;
12784;SDS011;6456;42.680;23.260;2023-08-20T05:52:17;10.43;;;9.40;;
12784;SDS011;6456;42.680;23.260;2023-08-20T05:54:44;11.30;;;9.10;;
12784;SDS011;6456;42.680;23.260;2023-08-20T05:57:11;11.82;;;8.82;;
12784;SDS011;6456;42.680;23.260;2023-08-20T05:59:38;8.32;;;7.55;;
12784;SDS011;6456;42.680;23.260;2023-08-20T06:02:05;10.63;;;7.90;;
12784;SDS011;6456;42.680;23.260;2023-08-20T06:04:34;11.38;;;7.85;;
12784;SDS011;6456;42.680;23.260;2023-08-20T06:07:00;9.38;;;8.23;;
12784;SDS011;6456;42.680;23.260;2023-08-20T06:09:27;8.45;;;7.38;;
12784;SDS011;6456;42.680;23.260;2023-08-20T06:11:54;10.18;;;7.93;;
12784;SDS011;6456;42.680;23.260;2023-08-20T06:14:21;10.65;;;7.80;;
12784;SDS011;6456;42.680;23.260;2023-08-20T06:16:48;9.50;;;8.57;;
12784;SDS011;6456;42.680;23.260;2023-08-20T06:19:15;12.32;;;8.15;;
12784;SDS011;6456;42.680;23.260;2023-08-20T06:21:43;9.05;;;8.15;;
12784;SDS011;6456;42.680;23.260;2023-08-20T06:24:10;8.45;;;7.60;;
12784;SDS011;6456;42.680;23.260;2023-08-20T06:26:37;8.43;;;7.45;;
12784;SDS011;6456;42.680;23.260;2023-08-20T06:29:04;12.15;;;7.97;;
12784;SDS011;6456;42.680;23.260;2023-08-20T06:31:30;9.00;;;7.60;;
12784;SDS011;6456;42.680;23.260;2023-08-20T06:33:57;10.85;;;7.70;;
12784;SDS011;6456;42.680;23.260;2023-08-20T06:36:24;8.23;;;7.43;;
12784;SDS011;6456;42.680;23.260;2023-08-20T06:38:52;11.38;;;8.00;;
12784;SDS011;6456;42.680;23.260;2023-08-20T06:41:19;8.45;;;7.53;;
12784;SDS011;6456;42.680;23.260;2023-08-20T06:43:46;9.30;;;7.90;;
12784;SDS011;6456;42.680;23.260;2023-08-20T06:46:13;8.15;;;7.35;;
12784;SDS011;6456;42.680;23.260;2023-08-20T06:48:40;12.27;;;6.80;;
12784;SDS011;6456;42.680;23.260;2023-08-20T06:51:10;7.60;;;6.55;;
12784;SDS011;6456;42.680;23.260;2023-08-20T06:53:41;7.57;;;6.78;;
12784;SDS011;6456;42.680;23.260;2023-08-20T06:56:09;6.82;;;6.32;;
12784;SDS011;6456;42.680;23.260;2023-08-20T07:01:04;8.02;;;6.57;;
12784;SDS011;6456;42.680;23.260;2023-08-20T07:03:33;6.95;;;6.28;;
12784;SDS011;6456;42.680;23.260;2023-08-20T07:06:01;7.35;;;6.32;;
12784;SDS011;6456;42.680;23.260;2023-08-20T07:08:37;7.18;;;6.50;;
12784;SDS011;6456;42.680;23.260;2023-08-20T07:11:04;7.97;;;7.07;;
12784;SDS011;6456;42.680;23.260;2023-08-20T07:13:33;8.98;;;6.57;;
12784;SDS011;6456;42.680;23.260;2023-08-20T07:16:00;13.30;;;6.20;;
12784;SDS011;6456;42.680;23.260;2023-08-20T07:18:27;10.52;;;7.07;;
12784;SDS011;6456;42.680;23.260;2023-08-20T07:20:54;7.95;;;6.05;;
12784;SDS011;6456;42.680;23.260;2023-08-20T07:23:24;6.90;;;5.97;;
12784;SDS011;6456;42.680;23.260;2023-08-20T07:25:51;6.53;;;5.93;;
12784;SDS011;6456;42.680;23.260;2023-08-20T07:28:30;7.00;;;5.70;;
12784;SDS011;6456;42.680;23.260;2023-08-20T07:31:13;10.07;;;5.65;;
12784;SDS011;6456;42.680;23.260;2023-08-20T07:33:39;6.75;;;6.13;;
12784;SDS011;6456;42.680;23.260;2023-08-20T07:36:06;6.13;;;5.53;;
12784;SDS011;6456;42.680;23.260;2023-08-20T07:38:33;7.07;;;5.82;;
12784;SDS011;6456;42.680;23.260;2023-08-20T07:41:06;6.38;;;5.78;;
12784;SDS011;6456;42.680;23.260;2023-08-20T07:43:34;8.95;;;5.60;;
12784;SDS011;6456;42.680;23.260;2023-08-20T07:46:02;5.60;;;5.13;;
12784;SDS011;6456;42.680;23.260;2023-08-20T07:48:29;5.53;;;4.55;;
12784;SDS011;6456;42.680;23.260;2023-08-20T07:50:56;7.03;;;5.22;;
12784;SDS011;6456;42.680;23.260;2023-08-20T07:53:24;5.43;;;4.93;;
12784;SDS011;6456;42.680;23.260;2023-08-20T07:55:51;5.50;;;5.00;;
12784;SDS011;6456;42.680;23.260;2023-08-20T07:58:17;5.63;;;4.85;;
12784;SDS011;6456;42.680;23.260;2023-08-20T08:00:46;5.68;;;5.20;;
12784;SDS011;6456;42.680;23.260;2023-08-20T08:03:13;6.40;;;5.28;;
12784;SDS011;6456;42.680;23.260;2023-08-20T08:05:42;5.65;;;4.78;;
12784;SDS011;6456;42.680;23.260;2023-08-20T08:08:12;4.97;;;4.50;;
12784;SDS011;6456;42.680;23.260;2023-08-20T08:10:39;5.60;;;5.00;;
12784;SDS011;6456;42.680;23.260;2023-08-20T08:13:06;5.35;;;4.85;;
12784;SDS011;6456;42.680;23.260;2023-08-20T08:15:33;5.97;;;4.78;;
12784;SDS011;6456;42.680;23.260;2023-08-20T08:18:01;5.03;;;4.63;;
12784;SDS011;6456;42.680;23.260;2023-08-20T08:20:28;5.28;;;4.88;;
12784;SDS011;6456;42.680;23.260;2023-08-20T08:22:55;7.82;;;5.25;;
12784;SDS011;6456;42.680;23.260;2023-08-20T08:25:24;5.53;;;4.85;;
12784;SDS011;6456;42.680;23.260;2023-08-20T08:27:51;6.80;;;4.97;;
12784;SDS011;6456;42.680;23.260;2023-08-20T08:30:18;10.32;;;5.55;;
12784;SDS011;6456;42.680;23.260;2023-08-20T08:32:45;5.82;;;5.13;;
12784;SDS011;6456;42.680;23.260;2023-08-20T08:35:14;5.50;;;4.93;;
12784;SDS011;6456;42.680;23.260;2023-08-20T08:37:41;5.68;;;4.82;;
12784;SDS011;6456;42.680;23.260;2023-08-20T08:40:08;9.23;;;5.55;;
12784;SDS011;6456;42.680;23.260;2023-08-20T08:42:35;5.72;;;5.22;;
12784;SDS011;6456;42.680;23.260;2023-08-20T08:45:02;5.47;;;5.00;;
12784;SDS011;6456;42.680;23.260;2023-08-20T08:47:30;5.20;;;4.80;;
12784;SDS011;6456;42.680;23.260;2023-08-20T08:49:57;6.13;;;4.57;;
12784;SDS011;6456;42.680;23.260;2023-08-20T08:52:26;8.57;;;5.40;;
12784;SDS011;6456;42.680;23.260;2023-08-20T08:54:53;5.88;;;5.05;;
12784;SDS011;6456;42.680;23.260;2023-08-20T08:57:20;4.63;;;4.22;;
12784;SDS011;6456;42.680;23.260;2023-08-20T08:59:47;4.75;;;4.07;;
12784;SDS011;6456;42.680;23.260;2023-08-20T09:02:14;5.15;;;4.65;;
12784;SDS011;6456;42.680;23.260;2023-08-20T09:04:43;5.80;;;4.40;;
12784;SDS011;6456;42.680;23.260;2023-08-20T09:07:11;4.70;;;4.30;;
12784;SDS011;6456;42.680;23.260;2023-08-20T09:09:43;5.47;;;4.28;;
12784;SDS011;6456;42.680;23.260;2023-08-20T09:12:13;5.95;;;3.95;;
12784;SDS011;6456;42.680;23.260;2023-08-20T09:14:43;4.40;;;4.00;;
12784;SDS011;6456;42.680;23.260;2023-08-20T09:17:13;7.35;;;4.22;;
12784;SDS011;6456;42.680;23.260;2023-08-20T09:19:42;5.00;;;4.45;;
12784;SDS011;6456;42.680;23.260;2023-08-20T09:22:10;5.93;;;3.90;;
12784;SDS011;6456;42.680;23.260;2023-08-20T09:24:39;4.25;;;3.95;;
12784;SDS011;6456;42.680;23.260;2023-08-20T09:27:10;5.10;;;4.25;;
12784;SDS011;6456;42.680;23.260;2023-08-20T09:29:43;4.70;;;4.20;;
12784;SDS011;6456;42.680;23.260;2023-08-20T09:32:13;4.10;;;3.80;;
12784;SDS011;6456;42.680;23.260;2023-08-20T09:34:40;5.72;;;3.85;;
12784;SDS011;6456;42.680;23.260;2023-08-20T09:37:08;6.57;;;4.25;;
12784;SDS011;6456;42.680;23.260;2023-08-20T09:39:36;7.32;;;4.47;;
12784;SDS011;6456;42.680;23.260;2023-08-20T09:42:03;5.10;;;4.00;;
12784;SDS011;6456;42.680;23.260;2023-08-20T09:44:33;6.38;;;3.92;;
12784;SDS011;6456;42.680;23.260;2023-08-20T09:47:01;4.57;;;3.80;;
12784;SDS011;6456;42.680;23.260;2023-08-20T09:49:32;4.55;;;4.15;;
12784;SDS011;6456;42.680;23.260;2023-08-20T09:52:03;4.00;;;3.60;;
12784;SDS011;6456;42.680;23.260;2023-08-20T09:54:35;3.92;;;3.50;;
12784;SDS011;6456;42.680;23.260;2023-08-20T09:57:12;4.55;;;3.67;;
12784;SDS011;6456;42.680;23.260;2023-08-20T09:59:51;3.58;;;3.33;;
12784;SDS011;6456;42.680;23.260;2023-08-20T10:02:19;3.80;;;3.50;;
12784;SDS011;6456;42.680;23.260;2023-08-20T10:04:46;3.90;;;3.50;;
12784;SDS011;6456;42.680;23.260;2023-08-20T10:07:15;3.65;;;3.28;;
12784;SDS011;6456;42.680;23.260;2023-08-20T10:09:42;3.45;;;3.25;;
12784;SDS011;6456;42.680;23.260;2023-08-20T10:12:11;5.65;;;3.60;;
12784;SDS011;6456;42.680;23.260;2023-08-20T10:14:38;3.20;;;3.00;;
12784;SDS011;6456;42.680;23.260;2023-08-20T10:17:08;4.28;;;3.38;;
12784;SDS011;6456;42.680;23.260;2023-08-20T10:19:36;3.72;;;3.42;;
12784;SDS011;6456;42.680;23.260;2023-08-20T10:22:03;3.70;;;2.90;;
12784;SDS011;6456;42.680;23.260;2023-08-20T10:24:39;3.40;;;3.10;;
12784;SDS011;6456;42.680;23.260;2023-08-20T10:27:08;3.60;;;3.13;;
12784;SDS011;6456;42.680;23.260;2023-08-20T10:29:36;3.35;;;3.10;;
12784;SDS011;6456;42.680;23.260;2023-08-20T10:32:05;3.63;;;3.33;;
12784;SDS011;6456;42.680;23.260;2023-08-20T10:34:35;4.28;;;2.90;;
12784;SDS011;6456;42.680;23.260;2023-08-20T10:37:08;3.40;;;2.80;;
12784;SDS011;6456;42.680;23.260;2023-08-20T10:39:35;3.60;;;2.88;;
12784;SDS011;6456;42.680;23.260;2023-08-20T10:42:09;3.42;;;3.13;;
12784;SDS011;6456;42.680;23.260;2023-08-20T10:44:56;3.78;;;3.15;;
12784;SDS011;6456;42.680;23.260;2023-08-20T10:47:25;6.22;;;3.00;;
12784;SDS011;6456;42.680;23.260;2023-08-20T10:49:52;3.28;;;3.08;;
12784;SDS011;6456;42.680;23.260;2023-08-20T10:52:19;3.55;;;3.35;;
12784;SDS011;6456;42.680;23.260;2023-08-20T10:54:49;3.97;;;3.45;;
12784;SDS011;6456;42.680;23.260;2023-08-20T10:57:17;4.93;;;3.20;;
12784;SDS011;6456;42.680;23.260;2023-08-20T10:59:50;3.10;;;2.88;;
12784;SDS011;6456;42.680;23.260;2023-08-20T11:02:25;3.20;;;2.90;;
12784;SDS011;6456;42.680;23.260;2023-08-20T11:04:52;4.78;;;3.45;;
12784;SDS011;6456;42.680;23.260;2023-08-20T11:07:19;3.80;;;3.40;;
12784;SDS011;6456;42.680;23.260;2023-08-20T11:09:48;4.57;;;3.30;;
12784;SDS011;6456;42.680;23.260;2023-08-20T11:12:19;3.47;;;3.17;;
12784;SDS011;6456;42.680;23.260;2023-08-20T11:14:47;4.03;;;3.40;;
12784;SDS011;6456;42.680;23.260;2023-08-20T11:17:14;3.47;;;3.17;;
12784;SDS011;6456;42.680;23.260;2023-08-20T11:19:42;4.30;;;3.08;;
12784;SDS011;6456;42.680;23.260;2023-08-20T11:22:09;3.30;;;3.00;;
12784;SDS011;6456;42.680;23.260;2023-08-20T11:24:38;3.05;;;2.75;;
12784;SDS011;6456;42.680;23.260;2023-08-20T11:27:08;3.75;;;3.08;;
12784;SDS011;6456;42.680;23.260;2023-08-20T11:29:39;3.00;;;2.67;;
12784;SDS011;6456;42.680;23.260;2023-08-20T11:32:08;4.45;;;3.20;;
12784;SDS011;6456;42.680;23.260;2023-08-20T11:34:36;7.53;;;3.40;;
12784;SDS011;6456;42.680;23.260;2023-08-20T11:37:06;3.42;;;3.13;;
12784;SDS011;6456;42.680;23.260;2023-08-20T11:39:32;3.30;;;3.03;;
12784;SDS011;6456;42.680;23.260;2023-08-20T11:41:59;2.95;;;2.75;;
12784;SDS011;6456;42.680;23.260;2023-08-20T11:44:27;6.07;;;3.35;;
12784;SDS011;6456;42.680;23.260;2023-08-20T11:46:54;3.30;;;3.10;;
12784;SDS011;6456;42.680;23.260;2023-08-20T11:49:26;4.70;;;3.58;;
12784;SDS011;6456;42.680;23.260;2023-08-20T11:51:55;3.72;;;3.40;;
12784;SDS011;6456;42.680;23.260;2023-08-20T11:54:24;3.60;;;3.30;;
12784;SDS011;6456;42.680;23.260;2023-08-20T11:56:52;3.70;;;3.35;;
12784;SDS011;6456;42.680;23.260;2023-08-20T11:59:27;3.83;;;3.45;;
12784;SDS011;6456;42.680;23.260;2023-08-20T12:01:55;4.18;;;3.10;;
12784;SDS011;6456;42.680;23.260;2023-08-20T12:04:24;4.45;;;3.47;;
12784;SDS011;6456;42.680;23.260;2023-08-20T12:07:01;3.63;;;3.33;;
12784;SDS011;6456;42.680;23.260;2023-08-20T12:09:31;3.47;;;3.28;;
12784;SDS011;6456;42.680;23.260;2023-08-20T12:11:59;3.90;;;3.30;;
12784;SDS011;6456;42.680;23.260;2023-08-20T12:14:26;3.63;;;3.33;;
12784;SDS011;6456;42.680;23.260;2023-08-20T12:16:53;4.07;;;3.58;;
12784;SDS011;6456;42.680;23.260;2023-08-20T12:19:20;4.20;;;3.30;;
12784;SDS011;6456;42.680;23.260;2023-08-20T12:21:48;4.22;;;3.60;;
12784;SDS011;6456;42.680;23.260;2023-08-20T12:24:15;4.28;;;3.40;;
12784;SDS011;6456;42.680;23.260;2023-08-20T12:26:45;4.28;;;3.33;;
12784;SDS011;6456;42.680;23.260;2023-08-20T12:29:12;3.33;;;3.00;;
12784;SDS011;6456;42.680;23.260;2023-08-20T12:31:40;4.57;;;3.63;;
12784;SDS011;6456;42.680;23.260;2023-08-20T12:34:07;3.75;;;3.50;;
12784;SDS011;6456;42.680;23.260;2023-08-20T12:36:34;3.88;;;3.50;;
12784;SDS011;6456;42.680;23.260;2023-08-20T12:39:01;4.85;;;3.30;;
12784;SDS011;6456;42.680;23.260;2023-08-20T12:41:30;4.00;;;3.30;;
12784;SDS011;6456;42.680;23.260;2023-08-20T12:43:59;4.03;;;3.72;;
12784;SDS011;6456;42.680;23.260;2023-08-20T12:46:26;3.90;;;3.60;;
12784;SDS011;6456;42.680;23.260;2023-08-20T12:48:53;3.85;;;3.60;;
12784;SDS011;6456;42.680;23.260;2023-08-20T12:51:20;5.05;;;3.60;;
12784;SDS011;6456;42.680;23.260;2023-08-20T12:53:47;5.10;;;3.60;;
12784;SDS011;6456;42.680;23.260;2023-08-20T12:56:14;3.90;;;3.60;;
12784;SDS011;6456;42.680;23.260;2023-08-20T12:58:41;4.20;;;3.58;;
12784;SDS011;6456;42.680;23.260;2023-08-20T13:01:10;4.00;;;3.60;;
12784;SDS011;6456;42.680;23.260;2023-08-20T13:03:37;3.80;;;3.50;;
12784;SDS011;6456;42.680;23.260;2023-08-20T13:06:05;3.80;;;3.22;;
12784;SDS011;6456;42.680;23.260;2023-08-20T13:08:32;3.78;;;3.30;;
12784;SDS011;6456;42.680;23.260;2023-08-20T13:11:00;4.00;;;3.60;;
12784;SDS011;6456;42.680;23.260;2023-08-20T13:13:29;3.42;;;3.22;;
12784;SDS011;6456;42.680;23.260;2023-08-20T13:15:59;3.88;;;3.58;;
12784;SDS011;6456;42.680;23.260;2023-08-20T13:18:29;4.28;;;3.30;;
12784;SDS011;6456;42.680;23.260;2023-08-20T13:20:57;4.20;;;3.75;;
12784;SDS011;6456;42.680;23.260;2023-08-20T13:23:24;3.55;;;3.25;;
12784;SDS011;6456;42.680;23.260;2023-08-20T13:25:51;3.60;;;3.30;;
12784;SDS011;6456;42.680;23.260;2023-08-20T13:28:18;3.50;;;3.20;;
12784;SDS011;6456;42.680;23.260;2023-08-20T13:30:45;3.65;;;3.35;;
12784;SDS011;6456;42.680;23.260;2023-08-20T13:33:12;4.28;;;3.63;;
12784;SDS011;6456;42.680;23.260;2023-08-20T13:35:40;5.10;;;3.60;;
12784;SDS011;6456;42.680;23.260;2023-08-20T13:38:07;3.53;;;3.30;;
12784;SDS011;6456;42.680;23.260;2023-08-20T13:40:34;3.78;;;3.50;;
12784;SDS011;6456;42.680;23.260;2023-08-20T13:43:01;5.00;;;3.45;;
12784;SDS011;6456;42.680;23.260;2023-08-20T13:45:28;4.53;;;3.42;;
12784;SDS011;6456;42.680;23.260;2023-08-20T13:47:56;4.18;;;3.88;;
12784;SDS011;6456;42.680;23.260;2023-08-20T13:50:23;4.90;;;3.33;;
12784;SDS011;6456;42.680;23.260;2023-08-20T13:52:51;3.50;;;3.25;;
12784;SDS011;6456;42.680;23.260;2023-08-20T13:55:18;3.58;;;3.28;;
12784;SDS011;6456;42.680;23.260;2023-08-20T13:57:46;3.72;;;3.42;;
12784;SDS011;6456;42.680;23.260;2023-08-20T14:00:13;3.90;;;3.30;;
12784;SDS011;6456;42.680;23.260;2023-08-20T14:02:40;5.47;;;3.50;;
12784;SDS011;6456;42.680;23.260;2023-08-20T14:05:08;3.60;;;3.40;;
12784;SDS011;6456;42.680;23.260;2023-08-20T14:07:35;4.80;;;3.38;;
12784;SDS011;6456;42.680;23.260;2023-08-20T14:10:04;3.50;;;3.13;;
12784;SDS011;6456;42.680;23.260;2023-08-20T14:12:31;4.10;;;3.53;;
12784;SDS011;6456;42.680;23.260;2023-08-20T14:14:58;3.30;;;3.10;;
12784;SDS011;6456;42.680;23.260;2023-08-20T14:17:26;3.63;;;3.33;;
12784;SDS011;6456;42.680;23.260;2023-08-20T14:19:54;4.43;;;3.50;;
12784;SDS011;6456;42.680;23.260;2023-08-20T14:22:20;3.83;;;3.53;;
12784;SDS011;6456;42.680;23.260;2023-08-20T14:24:48;3.92;;;3.60;;
12784;SDS011;6456;42.680;23.260;2023-08-20T14:27:16;5.32;;;3.63;;
12784;SDS011;6456;42.680;23.260;2023-08-20T14:29:43;3.88;;;3.42;;
12784;SDS011;6456;42.680;23.260;2023-08-20T14:32:10;4.00;;;3.40;;
12784;SDS011;6456;42.680;23.260;2023-08-20T14:34:37;3.65;;;3.35;;
12784;SDS011;6456;42.680;23.260;2023-08-20T14:37:03;4.38;;;3.70;;
12784;SDS011;6456;42.680;23.260;2023-08-20T14:39:31;3.65;;;3.28;;
12784;SDS011;6456;42.680;23.260;2023-08-20T14:41:58;6.03;;;3.60;;
12784;SDS011;6456;42.680;23.260;2023-08-20T14:44:27;3.58;;;3.28;;
12784;SDS011;6456;42.680;23.260;2023-08-20T14:46:54;3.80;;;3.50;;
12784;SDS011;6456;42.680;23.260;2023-08-20T14:49:22;4.75;;;3.50;;
12784;SDS011;6456;42.680;23.260;2023-08-20T14:51:49;4.15;;;3.85;;
12784;SDS011;6456;42.680;23.260;2023-08-20T14:54:16;5.75;;;3.58;;
12784;SDS011;6456;42.680;23.260;2023-08-20T14:56:43;4.00;;;3.70;;